sensor_id;sensor_type;location;lat;lon;timestamp;temperature;humidity
20041;DHT22;10181;48.072;9.884;2023-08-24T00:00:42;19.20;99.90
20041;DHT22;10181;48.072;9.884;2023-08-24T00:03:08;19.20;99.90
20041;DHT22;10181;48.072;9.884;2023-08-24T00:05:37;19.10;99.90
20041;DHT22;10181;48.072;9.884;2023-08-24T00:08:07;19.10;99.90
20041;DHT22;10181;48.072;9.884;2023-08-24T00:10:37;19.10;99.90
20041;DHT22;10181;48.072;9.884;2023-08-24T00:13:03;19.20;99.90
20041;DHT22;10181;48.072;9.884;2023-08-24T00:15:29;19.10;99.90
20041;DHT22;10181;48.072;9.884;2023-08-24T00:17:55;19.20;99.90
20041;DHT22;10181;48.072;9.884;2023-08-24T00:20:21;19.10;99.90
20041;DHT22;10181;48.072;9.884;2023-08-24T00:22:46;19.10;99.90
20041;DHT22;10181;48.072;9.884;2023-08-24T00:25:12;19.10;99.90
20041;DHT22;10181;48.072;9.884;2023-08-24T00:27:38;19.10;99.90
20041;DHT22;10181;48.072;9.884;2023-08-24T00:30:06;19.10;99.90
20041;DHT22;10181;48.072;9.884;2023-08-24T00:32:35;19.10;99.90
20041;DHT22;10181;48.072;9.884;2023-08-24T00:35:02;19.10;99.90
20041;DHT22;10181;48.072;9.884;2023-08-24T00:37:28;19.00;99.90
20041;DHT22;10181;48.072;9.884;2023-08-24T00:39:54;18.90;99.90
20041;DHT22;10181;48.072;9.884;2023-08-24T00:42:20;18.90;99.90
20041;DHT22;10181;48.072;9.884;2023-08-24T00:44:48;18.80;99.90
20041;DHT22;10181;48.072;9.884;2023-08-24T00:47:14;18.90;99.90
20041;DHT22;10181;48.072;9.884;2023-08-24T00:49:39;18.80;99.90
20041;DHT22;10181;48.072;9.884;2023-08-24T00:52:05;18.80;99.90
20041;DHT22;10181;48.072;9.884;2023-08-24T00:54:31;18.90;99.90
20041;DHT22;10181;48.072;9.884;2023-08-24T00:56:57;18.80;99.90
20041;DHT22;10181;48.072;9.884;2023-08-24T00:59:23;18.80;99.90
20041;DHT22;10181;48.072;9.884;2023-08-24T01:01:49;18.80;99.90
20041;DHT22;10181;48.072;9.884;2023-08-24T01:04:16;18.70;99.90
20041;DHT22;10181;48.072;9.884;2023-08-24T01:06:41;18.70;99.90
20041;DHT22;10181;48.072;9.884;2023-08-24T01:09:07;18.70;99.90
20041;DHT22;10181;48.072;9.884;2023-08-24T01:12:05;18.70;99.90
20041;DHT22;10181;48.072;9.884;2023-08-24T01:14:45;18.70;99.90
20041;DHT22;10181;48.072;9.884;2023-08-24T01:17:15;18.70;99.90
20041;DHT22;10181;48.072;9.884;2023-08-24T01:19:43;18.60;99.90
20041;DHT22;10181;48.072;9.884;2023-08-24T01:22:33;18.60;99.90
20041;DHT22;10181;48.072;9.884;2023-08-24T01:25:19;18.50;99.90
20041;DHT22;10181;48.072;9.884;2023-08-24T01:27:48;18.50;99.90
20041;DHT22;10181;48.072;9.884;2023-08-24T01:30:14;18.50;99.90
20041;DHT22;10181;48.072;9.884;2023-08-24T01:32:40;18.50;99.90
20041;DHT22;10181;48.072;9.884;2023-08-24T01:35:08;18.50;99.90
20041;DHT22;10181;48.072;9.884;2023-08-24T01:37:35;18.50;99.90
20041;DHT22;10181;48.072;9.884;2023-08-24T01:40:17;18.60;99.90
20041;DHT22;10181;48.072;9.884;2023-08-24T01:42:55;18.60;99.90
20041;DHT22;10181;48.072;9.884;2023-08-24T01:45:24;18.70;99.90
20041;DHT22;10181;48.072;9.884;2023-08-24T01:47:50;18.70;99.90
20041;DHT22;10181;48.072;9.884;2023-08-24T01:50:17;18.60;99.90
20041;DHT22;10181;48.072;9.884;2023-08-24T01:52:44;18.60;99.90
20041;DHT22;10181;48.072;9.884;2023-08-24T01:55:10;18.50;99.90
20041;DHT22;10181;48.072;9.884;2023-08-24T01:57:37;18.50;99.90
20041;DHT22;10181;48.072;9.884;2023-08-24T02:00:04;18.40;99.90
20041;DHT22;10181;48.072;9.884;2023-08-24T02:02:32;18.30;99.90
20041;DHT22;10181;48.072;9.884;2023-08-24T02:04:58;18.20;99.90
20041;DHT22;10181;48.072;9.884;2023-08-24T02:07:24;18.20;99.90
20041;DHT22;10181;48.072;9.884;2023-08-24T02:09:50;18.10;99.90
20041;DHT22;10181;48.072;9.884;2023-08-24T02:12:16;18.10;99.90
20041;DHT22;10181;48.072;9.884;2023-08-24T02:14:41;18.10;99.90
20041;DHT22;10181;48.072;9.884;2023-08-24T02:17:07;18.10;99.90
20041;DHT22;10181;48.072;9.884;2023-08-24T02:19:32;18.10;99.90
20041;DHT22;10181;48.072;9.884;2023-08-24T02:21:58;18.00;99.90
20041;DHT22;10181;48.072;9.884;2023-08-24T02:24:24;17.90;99.90
20041;DHT22;10181;48.072;9.884;2023-08-24T02:26:49;17.80;99.90
20041;DHT22;10181;48.072;9.884;2023-08-24T02:29:15;17.80;99.90
20041;DHT22;10181;48.072;9.884;2023-08-24T02:31:40;17.90;99.90
20041;DHT22;10181;48.072;9.884;2023-08-24T02:34:06;17.90;99.90
20041;DHT22;10181;48.072;9.884;2023-08-24T02:36:32;18.00;99.90
20041;DHT22;10181;48.072;9.884;2023-08-24T02:38:59;18.00;99.90
20041;DHT22;10181;48.072;9.884;2023-08-24T02:41:26;18.10;99.90
20041;DHT22;10181;48.072;9.884;2023-08-24T02:43:51;18.10;99.90
20041;DHT22;10181;48.072;9.884;2023-08-24T02:46:17;18.20;99.90
20041;DHT22;10181;48.072;9.884;2023-08-24T02:48:44;18.20;99.90
20041;DHT22;10181;48.072;9.884;2023-08-24T02:51:10;18.30;99.90
20041;DHT22;10181;48.072;9.884;2023-08-24T02:53:36;18.20;99.90
20041;DHT22;10181;48.072;9.884;2023-08-24T02:56:02;18.20;99.90
20041;DHT22;10181;48.072;9.884;2023-08-24T02:58:29;18.10;99.90
20041;DHT22;10181;48.072;9.884;2023-08-24T03:00:56;18.00;99.90
20041;DHT22;10181;48.072;9.884;2023-08-24T03:03:22;17.90;99.90
20041;DHT22;10181;48.072;9.884;2023-08-24T03:05:57;17.90;99.90
20041;DHT22;10181;48.072;9.884;2023-08-24T03:08:23;17.90;99.90
20041;DHT22;10181;48.072;9.884;2023-08-24T03:10:49;17.90;99.90
20041;DHT22;10181;48.072;9.884;2023-08-24T03:13:15;17.90;99.90
20041;DHT22;10181;48.072;9.884;2023-08-24T03:15:41;18.00;99.90
20041;DHT22;10181;48.072;9.884;2023-08-24T03:18:06;18.00;99.90
20041;DHT22;10181;48.072;9.884;2023-08-24T03:20:32;18.00;99.90
20041;DHT22;10181;48.072;9.884;2023-08-24T03:22:58;18.10;99.90
20041;DHT22;10181;48.072;9.884;2023-08-24T03:25:24;18.10;99.90
20041;DHT22;10181;48.072;9.884;2023-08-24T03:27:49;18.20;99.90
20041;DHT22;10181;48.072;9.884;2023-08-24T03:30:15;18.20;99.90
20041;DHT22;10181;48.072;9.884;2023-08-24T03:32:41;18.20;99.90
20041;DHT22;10181;48.072;9.884;2023-08-24T03:35:07;18.30;99.90
20041;DHT22;10181;48.072;9.884;2023-08-24T03:37:33;18.30;99.90
20041;DHT22;10181;48.072;9.884;2023-08-24T03:39:59;18.30;99.90
20041;DHT22;10181;48.072;9.884;2023-08-24T03:42:25;18.30;99.90
20041;DHT22;10181;48.072;9.884;2023-08-24T03:44:50;18.30;99.90
20041;DHT22;10181;48.072;9.884;2023-08-24T03:47:16;18.30;99.90
20041;DHT22;10181;48.072;9.884;2023-08-24T03:49:43;18.30;99.90
20041;DHT22;10181;48.072;9.884;2023-08-24T03:52:09;18.20;99.90
20041;DHT22;10181;48.072;9.884;2023-08-24T03:54:34;18.20;99.90
20041;DHT22;10181;48.072;9.884;2023-08-24T03:57:01;18.20;99.90
20041;DHT22;10181;48.072;9.884;2023-08-24T03:59:27;18.20;99.90
20041;DHT22;10181;48.072;9.884;2023-08-24T04:01:53;18.10;99.90
20041;DHT22;10181;48.072;9.884;2023-08-24T04:04:18;18.00;99.90
20041;DHT22;10181;48.072;9.884;2023-08-24T04:06:44;18.00;99.90
20041;DHT22;10181;48.072;9.884;2023-08-24T04:09:10;17.80;99.90
20041;DHT22;10181;48.072;9.884;2023-08-24T04:11:36;17.80;99.90
20041;DHT22;10181;48.072;9.884;2023-08-24T04:14:01;17.70;99.90
20041;DHT22;10181;48.072;9.884;2023-08-24T04:16:27;17.60;99.90
20041;DHT22;10181;48.072;9.884;2023-08-24T04:18:52;17.50;99.90
20041;DHT22;10181;48.072;9.884;2023-08-24T04:21:18;17.50;99.90
20041;DHT22;10181;48.072;9.884;2023-08-24T04:23:44;17.50;99.90
20041;DHT22;10181;48.072;9.884;2023-08-24T04:26:13;17.50;99.90
20041;DHT22;10181;48.072;9.884;2023-08-24T04:28:39;17.40;99.90
20041;DHT22;10181;48.072;9.884;2023-08-24T04:31:05;17.40;99.90
20041;DHT22;10181;48.072;9.884;2023-08-24T04:33:31;17.40;99.90
20041;DHT22;10181;48.072;9.884;2023-08-24T04:35:59;17.40;99.90
20041;DHT22;10181;48.072;9.884;2023-08-24T04:38:24;17.30;99.90
20041;DHT22;10181;48.072;9.884;2023-08-24T04:40:51;17.20;99.90
20041;DHT22;10181;48.072;9.884;2023-08-24T04:43:18;17.20;99.90
20041;DHT22;10181;48.072;9.884;2023-08-24T04:45:46;17.20;99.90
20041;DHT22;10181;48.072;9.884;2023-08-24T04:48:12;17.30;99.90
20041;DHT22;10181;48.072;9.884;2023-08-24T04:50:38;17.30;99.90
20041;DHT22;10181;48.072;9.884;2023-08-24T04:53:03;17.30;99.90
20041;DHT22;10181;48.072;9.884;2023-08-24T04:55:29;17.20;99.90
20041;DHT22;10181;48.072;9.884;2023-08-24T04:57:54;17.20;99.90
20041;DHT22;10181;48.072;9.884;2023-08-24T05:00:20;17.20;99.90
20041;DHT22;10181;48.072;9.884;2023-08-24T05:02:46;17.20;99.90
20041;DHT22;10181;48.072;9.884;2023-08-24T05:05:11;17.20;99.90
20041;DHT22;10181;48.072;9.884;2023-08-24T05:07:39;17.10;99.90
20041;DHT22;10181;48.072;9.884;2023-08-24T05:10:07;17.10;99.90
20041;DHT22;10181;48.072;9.884;2023-08-24T05:12:32;17.10;99.90
20041;DHT22;10181;48.072;9.884;2023-08-24T05:15:01;17.20;99.90
20041;DHT22;10181;48.072;9.884;2023-08-24T05:17:27;17.30;99.90
20041;DHT22;10181;48.072;9.884;2023-08-24T05:19:56;17.30;99.90
20041;DHT22;10181;48.072;9.884;2023-08-24T05:22:22;17.40;99.90
20041;DHT22;10181;48.072;9.884;2023-08-24T05:24:47;17.40;99.90
20041;DHT22;10181;48.072;9.884;2023-08-24T05:27:14;17.50;99.90
20041;DHT22;10181;48.072;9.884;2023-08-24T05:29:40;17.50;99.90
20041;DHT22;10181;48.072;9.884;2023-08-24T05:32:05;17.60;99.90
20041;DHT22;10181;48.072;9.884;2023-08-24T05:34:31;17.60;99.90
20041;DHT22;10181;48.072;9.884;2023-08-24T05:36:57;17.70;99.90
20041;DHT22;10181;48.072;9.884;2023-08-24T05:39:23;17.70;99.90
20041;DHT22;10181;48.072;9.884;2023-08-24T05:41:52;17.80;99.90
20041;DHT22;10181;48.072;9.884;2023-08-24T05:44:21;17.80;99.90
20041;DHT22;10181;48.072;9.884;2023-08-24T05:46:47;17.90;99.90
20041;DHT22;10181;48.072;9.884;2023-08-24T05:49:13;17.90;99.90
20041;DHT22;10181;48.072;9.884;2023-08-24T05:51:38;18.10;99.90
20041;DHT22;10181;48.072;9.884;2023-08-24T05:54:04;18.10;99.90
20041;DHT22;10181;48.072;9.884;2023-08-24T05:56:30;18.30;99.90
20041;DHT22;10181;48.072;9.884;2023-08-24T05:58:58;18.40;99.90
20041;DHT22;10181;48.072;9.884;2023-08-24T06:01:24;18.50;99.90
20041;DHT22;10181;48.072;9.884;2023-08-24T06:03:50;18.60;99.90
20041;DHT22;10181;48.072;9.884;2023-08-24T06:06:16;18.80;99.90
20041;DHT22;10181;48.072;9.884;2023-08-24T06:08:42;19.00;99.90
20041;DHT22;10181;48.072;9.884;2023-08-24T06:11:07;19.20;99.90
20041;DHT22;10181;48.072;9.884;2023-08-24T06:13:33;19.30;99.90
20041;DHT22;10181;48.072;9.884;2023-08-24T06:15:59;19.50;99.90
20041;DHT22;10181;48.072;9.884;2023-08-24T06:18:24;19.60;99.90
20041;DHT22;10181;48.072;9.884;2023-08-24T06:20:50;19.60;99.90
20041;DHT22;10181;48.072;9.884;2023-08-24T06:23:16;19.60;99.90
20041;DHT22;10181;48.072;9.884;2023-08-24T06:25:43;19.60;99.90
20041;DHT22;10181;48.072;9.884;2023-08-24T06:28:10;19.70;99.90
20041;DHT22;10181;48.072;9.884;2023-08-24T06:30:39;19.70;99.90
20041;DHT22;10181;48.072;9.884;2023-08-24T06:33:05;19.80;99.90
20041;DHT22;10181;48.072;9.884;2023-08-24T06:35:35;19.90;99.90
20041;DHT22;10181;48.072;9.884;2023-08-24T06:38:01;20.10;99.90
20041;DHT22;10181;48.072;9.884;2023-08-24T06:40:27;20.30;99.90
20041;DHT22;10181;48.072;9.884;2023-08-24T06:42:52;20.60;99.90
20041;DHT22;10181;48.072;9.884;2023-08-24T06:45:18;20.80;99.90
20041;DHT22;10181;48.072;9.884;2023-08-24T06:47:44;20.90;99.90
20041;DHT22;10181;48.072;9.884;2023-08-24T06:50:10;21.00;99.90
20041;DHT22;10181;48.072;9.884;2023-08-24T06:52:36;21.10;99.90
20041;DHT22;10181;48.072;9.884;2023-08-24T06:55:02;21.20;99.90
20041;DHT22;10181;48.072;9.884;2023-08-24T06:57:29;21.30;99.90
20041;DHT22;10181;48.072;9.884;2023-08-24T06:59:54;21.50;99.90
20041;DHT22;10181;48.072;9.884;2023-08-24T07:02:20;21.60;99.90
20041;DHT22;10181;48.072;9.884;2023-08-24T07:04:46;21.70;99.90
20041;DHT22;10181;48.072;9.884;2023-08-24T07:07:11;21.90;99.90
20041;DHT22;10181;48.072;9.884;2023-08-24T07:09:37;22.00;99.90
20041;DHT22;10181;48.072;9.884;2023-08-24T07:12:03;22.10;99.90
20041;DHT22;10181;48.072;9.884;2023-08-24T07:14:31;22.30;99.90
20041;DHT22;10181;48.072;9.884;2023-08-24T07:16:58;22.50;99.90
20041;DHT22;10181;48.072;9.884;2023-08-24T07:19:24;22.70;99.90
20041;DHT22;10181;48.072;9.884;2023-08-24T07:21:51;22.90;99.90
20041;DHT22;10181;48.072;9.884;2023-08-24T07:24:19;23.10;99.90
20041;DHT22;10181;48.072;9.884;2023-08-24T07:26:46;23.30;99.90
20041;DHT22;10181;48.072;9.884;2023-08-24T07:29:12;23.30;99.90
20041;DHT22;10181;48.072;9.884;2023-08-24T07:31:38;23.40;99.90
20041;DHT22;10181;48.072;9.884;2023-08-24T07:34:03;23.50;99.90
20041;DHT22;10181;48.072;9.884;2023-08-24T07:36:30;23.60;99.90
20041;DHT22;10181;48.072;9.884;2023-08-24T07:38:56;23.70;99.90
20041;DHT22;10181;48.072;9.884;2023-08-24T07:41:22;23.90;99.90
20041;DHT22;10181;48.072;9.884;2023-08-24T07:43:47;23.90;99.90
20041;DHT22;10181;48.072;9.884;2023-08-24T07:46:13;24.00;99.90
20041;DHT22;10181;48.072;9.884;2023-08-24T07:48:39;24.10;99.90
20041;DHT22;10181;48.072;9.884;2023-08-24T07:51:05;24.10;99.90
20041;DHT22;10181;48.072;9.884;2023-08-24T07:53:31;24.20;99.90
20041;DHT22;10181;48.072;9.884;2023-08-24T07:55:58;24.10;99.90
20041;DHT22;10181;48.072;9.884;2023-08-24T07:58:25;24.10;99.90
20041;DHT22;10181;48.072;9.884;2023-08-24T08:00:51;24.10;99.90
20041;DHT22;10181;48.072;9.884;2023-08-24T08:03:20;24.10;99.90
20041;DHT22;10181;48.072;9.884;2023-08-24T08:05:46;24.10;99.90
20041;DHT22;10181;48.072;9.884;2023-08-24T08:08:15;24.10;99.90
20041;DHT22;10181;48.072;9.884;2023-08-24T08:10:41;24.10;99.90
20041;DHT22;10181;48.072;9.884;2023-08-24T08:13:08;24.10;99.90
20041;DHT22;10181;48.072;9.884;2023-08-24T08:15:34;24.10;99.90
20041;DHT22;10181;48.072;9.884;2023-08-24T08:17:59;24.10;99.90
20041;DHT22;10181;48.072;9.884;2023-08-24T08:20:25;24.10;99.90
20041;DHT22;10181;48.072;9.884;2023-08-24T08:22:51;24.10;99.90
20041;DHT22;10181;48.072;9.884;2023-08-24T08:25:16;24.20;99.90
20041;DHT22;10181;48.072;9.884;2023-08-24T08:27:47;24.30;99.90
20041;DHT22;10181;48.072;9.884;2023-08-24T08:30:13;24.40;99.90
20041;DHT22;10181;48.072;9.884;2023-08-24T08:32:40;24.50;99.90
20041;DHT22;10181;48.072;9.884;2023-08-24T08:35:06;24.60;99.90
20041;DHT22;10181;48.072;9.884;2023-08-24T08:37:31;24.70;99.90
20041;DHT22;10181;48.072;9.884;2023-08-24T08:39:58;24.80;99.90
20041;DHT22;10181;48.072;9.884;2023-08-24T08:42:23;24.80;99.90
20041;DHT22;10181;48.072;9.884;2023-08-24T08:44:49;24.90;99.90
20041;DHT22;10181;48.072;9.884;2023-08-24T08:47:16;25.00;99.90
20041;DHT22;10181;48.072;9.884;2023-08-24T08:49:43;25.10;99.90
20041;DHT22;10181;48.072;9.884;2023-08-24T08:52:10;25.20;99.90
20041;DHT22;10181;48.072;9.884;2023-08-24T08:54:37;25.30;99.90
20041;DHT22;10181;48.072;9.884;2023-08-24T08:57:02;25.40;99.90
20041;DHT22;10181;48.072;9.884;2023-08-24T08:59:29;25.50;99.90
20041;DHT22;10181;48.072;9.884;2023-08-24T09:01:56;25.60;99.90
20041;DHT22;10181;48.072;9.884;2023-08-24T09:04:24;25.80;99.90
20041;DHT22;10181;48.072;9.884;2023-08-24T09:06:50;25.90;99.90
20041;DHT22;10181;48.072;9.884;2023-08-24T09:09:16;25.90;99.90
20041;DHT22;10181;48.072;9.884;2023-08-24T09:11:42;25.90;99.90
20041;DHT22;10181;48.072;9.884;2023-08-24T09:14:12;26.00;99.90
20041;DHT22;10181;48.072;9.884;2023-08-24T09:16:39;26.10;99.90
20041;DHT22;10181;48.072;9.884;2023-08-24T09:19:06;26.20;99.90
20041;DHT22;10181;48.072;9.884;2023-08-24T09:21:36;26.30;99.90
20041;DHT22;10181;48.072;9.884;2023-08-24T09:24:02;26.50;99.90
20041;DHT22;10181;48.072;9.884;2023-08-24T09:28:56;26.70;99.90
20041;DHT22;10181;48.072;9.884;2023-08-24T09:31:22;26.80;99.90
20041;DHT22;10181;48.072;9.884;2023-08-24T09:33:48;27.00;99.90
20041;DHT22;10181;48.072;9.884;2023-08-24T09:36:14;27.10;99.90
20041;DHT22;10181;48.072;9.884;2023-08-24T09:38:47;27.20;99.90
20041;DHT22;10181;48.072;9.884;2023-08-24T09:41:17;27.20;99.90
20041;DHT22;10181;48.072;9.884;2023-08-24T09:43:42;27.30;99.90
20041;DHT22;10181;48.072;9.884;2023-08-24T09:46:08;27.40;99.90
20041;DHT22;10181;48.072;9.884;2023-08-24T09:48:34;27.50;99.90
20041;DHT22;10181;48.072;9.884;2023-08-24T09:51:04;27.60;99.90
20041;DHT22;10181;48.072;9.884;2023-08-24T09:53:33;27.60;99.90
20041;DHT22;10181;48.072;9.884;2023-08-24T09:56:02;27.70;99.90
20041;DHT22;10181;48.072;9.884;2023-08-24T09:58:29;27.80;99.90
20041;DHT22;10181;48.072;9.884;2023-08-24T10:00:56;27.80;99.90
20041;DHT22;10181;48.072;9.884;2023-08-24T10:03:25;27.80;99.90
20041;DHT22;10181;48.072;9.884;2023-08-24T10:05:52;27.80;99.90
20041;DHT22;10181;48.072;9.884;2023-08-24T10:08:31;27.90;99.90
20041;DHT22;10181;48.072;9.884;2023-08-24T10:10:58;28.00;99.90
20041;DHT22;10181;48.072;9.884;2023-08-24T10:13:53;28.00;99.90
20041;DHT22;10181;48.072;9.884;2023-08-24T10:16:21;28.00;99.90
20041;DHT22;10181;48.072;9.884;2023-08-24T10:18:48;28.00;99.90
20041;DHT22;10181;48.072;9.884;2023-08-24T10:21:17;28.00;99.90
20041;DHT22;10181;48.072;9.884;2023-08-24T10:23:43;28.10;99.90
20041;DHT22;10181;48.072;9.884;2023-08-24T10:26:12;28.10;99.90
20041;DHT22;10181;48.072;9.884;2023-08-24T10:28:39;28.20;99.90
20041;DHT22;10181;48.072;9.884;2023-08-24T10:31:05;28.20;99.90
20041;DHT22;10181;48.072;9.884;2023-08-24T10:33:32;28.30;99.90
20041;DHT22;10181;48.072;9.884;2023-08-24T10:35:59;28.30;99.90
20041;DHT22;10181;48.072;9.884;2023-08-24T10:38:27;28.40;99.90
20041;DHT22;10181;48.072;9.884;2023-08-24T10:40:54;28.40;99.90
20041;DHT22;10181;48.072;9.884;2023-08-24T10:43:20;28.40;99.90
20041;DHT22;10181;48.072;9.884;2023-08-24T10:46:00;28.50;99.90
20041;DHT22;10181;48.072;9.884;2023-08-24T10:53:51;28.80;99.90
20041;DHT22;10181;48.072;9.884;2023-08-24T10:56:18;28.80;99.90
20041;DHT22;10181;48.072;9.884;2023-08-24T10:58:44;28.90;99.90
20041;DHT22;10181;48.072;9.884;2023-08-24T11:01:20;29.00;99.90
20041;DHT22;10181;48.072;9.884;2023-08-24T11:03:50;29.00;99.90
20041;DHT22;10181;48.072;9.884;2023-08-24T11:06:23;29.20;99.90
20041;DHT22;10181;48.072;9.884;2023-08-24T11:09:05;29.30;99.90
20041;DHT22;10181;48.072;9.884;2023-08-24T11:11:32;29.40;99.90
20041;DHT22;10181;48.072;9.884;2023-08-24T11:16:45;29.60;99.90
20041;DHT22;10181;48.072;9.884;2023-08-24T11:19:12;29.70;99.90
20041;DHT22;10181;48.072;9.884;2023-08-24T11:21:42;29.80;99.90
20041;DHT22;10181;48.072;9.884;2023-08-24T11:24:09;29.90;99.90
20041;DHT22;10181;48.072;9.884;2023-08-24T11:26:42;30.00;99.90
20041;DHT22;10181;48.072;9.884;2023-08-24T11:29:08;30.10;99.90
20041;DHT22;10181;48.072;9.884;2023-08-24T11:31:35;30.10;99.90
20041;DHT22;10181;48.072;9.884;2023-08-24T11:34:01;30.20;99.90
20041;DHT22;10181;48.072;9.884;2023-08-24T11:36:28;30.30;99.90
20041;DHT22;10181;48.072;9.884;2023-08-24T11:38:57;30.40;99.90
20041;DHT22;10181;48.072;9.884;2023-08-24T11:41:23;30.60;99.90
20041;DHT22;10181;48.072;9.884;2023-08-24T11:43:49;30.70;99.90
20041;DHT22;10181;48.072;9.884;2023-08-24T11:46:19;30.80;99.90
20041;DHT22;10181;48.072;9.884;2023-08-24T11:48:45;30.90;99.90
20041;DHT22;10181;48.072;9.884;2023-08-24T11:51:12;31.00;99.90
20041;DHT22;10181;48.072;9.884;2023-08-24T11:53:45;31.10;99.90
20041;DHT22;10181;48.072;9.884;2023-08-24T11:56:11;31.30;99.90
20041;DHT22;10181;48.072;9.884;2023-08-24T11:58:39;31.40;99.90
20041;DHT22;10181;48.072;9.884;2023-08-24T12:01:05;31.60;99.90
20041;DHT22;10181;48.072;9.884;2023-08-24T12:03:32;31.60;99.90
20041;DHT22;10181;48.072;9.884;2023-08-24T12:06:01;31.70;99.90
20041;DHT22;10181;48.072;9.884;2023-08-24T12:08:29;31.80;99.90
20041;DHT22;10181;48.072;9.884;2023-08-24T12:10:54;31.80;99.90
20041;DHT22;10181;48.072;9.884;2023-08-24T12:13:20;31.90;99.90
20041;DHT22;10181;48.072;9.884;2023-08-24T12:15:47;32.10;99.90
20041;DHT22;10181;48.072;9.884;2023-08-24T12:18:16;32.10;99.90
20041;DHT22;10181;48.072;9.884;2023-08-24T12:20:41;32.10;99.90
20041;DHT22;10181;48.072;9.884;2023-08-24T12:23:09;32.10;99.90
20041;DHT22;10181;48.072;9.884;2023-08-24T12:25:42;32.00;99.90
20041;DHT22;10181;48.072;9.884;2023-08-24T12:28:13;32.00;99.90
20041;DHT22;10181;48.072;9.884;2023-08-24T12:30:47;32.00;98.70
20041;DHT22;10181;48.072;9.884;2023-08-24T12:33:24;32.00;99.90
20041;DHT22;10181;48.072;9.884;2023-08-24T12:35:50;32.00;99.90
20041;DHT22;10181;48.072;9.884;2023-08-24T12:38:16;31.90;96.40
20041;DHT22;10181;48.072;9.884;2023-08-24T12:40:42;31.90;94.30
20041;DHT22;10181;48.072;9.884;2023-08-24T12:43:07;32.00;97.30
20041;DHT22;10181;48.072;9.884;2023-08-24T12:45:33;32.10;97.70
20041;DHT22;10181;48.072;9.884;2023-08-24T12:47:59;32.10;92.60
20041;DHT22;10181;48.072;9.884;2023-08-24T12:50:24;32.10;93.00
20041;DHT22;10181;48.072;9.884;2023-08-24T12:52:50;32.10;94.90
20041;DHT22;10181;48.072;9.884;2023-08-24T12:55:20;32.10;95.20
20041;DHT22;10181;48.072;9.884;2023-08-24T12:57:46;32.10;94.80
20041;DHT22;10181;48.072;9.884;2023-08-24T13:00:13;32.10;94.00
20041;DHT22;10181;48.072;9.884;2023-08-24T13:02:39;32.10;94.30
20041;DHT22;10181;48.072;9.884;2023-08-24T13:05:05;32.20;94.20
20041;DHT22;10181;48.072;9.884;2023-08-24T13:07:31;32.40;92.80
20041;DHT22;10181;48.072;9.884;2023-08-24T13:09:56;32.40;93.50
20041;DHT22;10181;48.072;9.884;2023-08-24T13:12:23;32.50;93.20
20041;DHT22;10181;48.072;9.884;2023-08-24T13:14:49;32.50;92.80
20041;DHT22;10181;48.072;9.884;2023-08-24T13:17:15;32.60;93.20
20041;DHT22;10181;48.072;9.884;2023-08-24T13:19:41;32.60;91.90
20041;DHT22;10181;48.072;9.884;2023-08-24T13:22:06;32.70;92.30
20041;DHT22;10181;48.072;9.884;2023-08-24T13:24:33;32.90;92.00
20041;DHT22;10181;48.072;9.884;2023-08-24T13:26:59;33.00;91.90
20041;DHT22;10181;48.072;9.884;2023-08-24T13:29:25;33.10;89.50
20041;DHT22;10181;48.072;9.884;2023-08-24T13:31:51;33.20;90.70
20041;DHT22;10181;48.072;9.884;2023-08-24T13:34:17;33.20;91.70
20041;DHT22;10181;48.072;9.884;2023-08-24T13:36:42;33.20;92.10
20041;DHT22;10181;48.072;9.884;2023-08-24T13:39:08;33.20;92.10
20041;DHT22;10181;48.072;9.884;2023-08-24T13:41:33;33.30;91.20
20041;DHT22;10181;48.072;9.884;2023-08-24T13:43:59;33.30;90.50
20041;DHT22;10181;48.072;9.884;2023-08-24T13:46:25;33.20;91.30
20041;DHT22;10181;48.072;9.884;2023-08-24T13:48:50;33.10;90.80
20041;DHT22;10181;48.072;9.884;2023-08-24T13:51:16;33.00;90.90
20041;DHT22;10181;48.072;9.884;2023-08-24T13:53:41;33.00;87.50
20041;DHT22;10181;48.072;9.884;2023-08-24T13:56:07;33.00;90.50
20041;DHT22;10181;48.072;9.884;2023-08-24T13:58:33;33.00;90.00
20041;DHT22;10181;48.072;9.884;2023-08-24T14:00:58;33.10;88.80
20041;DHT22;10181;48.072;9.884;2023-08-24T14:03:24;33.10;86.90
20041;DHT22;10181;48.072;9.884;2023-08-24T14:05:54;33.10;86.70
20041;DHT22;10181;48.072;9.884;2023-08-24T14:08:19;33.10;86.20
20041;DHT22;10181;48.072;9.884;2023-08-24T14:10:45;33.10;83.00
20041;DHT22;10181;48.072;9.884;2023-08-24T14:13:14;33.20;84.00
20041;DHT22;10181;48.072;9.884;2023-08-24T14:15:39;33.20;81.00
20041;DHT22;10181;48.072;9.884;2023-08-24T14:18:05;33.20;82.60
20041;DHT22;10181;48.072;9.884;2023-08-24T14:20:31;33.30;81.30
20041;DHT22;10181;48.072;9.884;2023-08-24T14:22:57;33.30;82.00
20041;DHT22;10181;48.072;9.884;2023-08-24T14:25:22;33.20;80.90
20041;DHT22;10181;48.072;9.884;2023-08-24T14:27:48;33.20;79.20
20041;DHT22;10181;48.072;9.884;2023-08-24T14:30:14;33.10;84.50
20041;DHT22;10181;48.072;9.884;2023-08-24T14:32:40;33.20;84.60
20041;DHT22;10181;48.072;9.884;2023-08-24T14:35:05;33.20;82.60
20041;DHT22;10181;48.072;9.884;2023-08-24T14:37:31;33.30;83.60
20041;DHT22;10181;48.072;9.884;2023-08-24T14:39:59;33.30;84.30
20041;DHT22;10181;48.072;9.884;2023-08-24T14:42:24;33.40;81.90
20041;DHT22;10181;48.072;9.884;2023-08-24T14:44:50;33.30;81.40
20041;DHT22;10181;48.072;9.884;2023-08-24T14:47:16;33.40;82.70
20041;DHT22;10181;48.072;9.884;2023-08-24T14:49:41;33.30;81.70
20041;DHT22;10181;48.072;9.884;2023-08-24T14:52:07;33.20;82.70
20041;DHT22;10181;48.072;9.884;2023-08-24T14:54:33;33.20;83.60
20041;DHT22;10181;48.072;9.884;2023-08-24T14:56:58;33.10;82.90
20041;DHT22;10181;48.072;9.884;2023-08-24T14:59:25;33.10;83.00
20041;DHT22;10181;48.072;9.884;2023-08-24T15:01:51;33.10;84.10
20041;DHT22;10181;48.072;9.884;2023-08-24T15:04:17;33.10;84.20
20041;DHT22;10181;48.072;9.884;2023-08-24T15:06:43;33.00;80.80
20041;DHT22;10181;48.072;9.884;2023-08-24T15:09:08;33.00;83.60
20041;DHT22;10181;48.072;9.884;2023-08-24T15:11:34;33.00;82.20
20041;DHT22;10181;48.072;9.884;2023-08-24T15:13:59;32.90;82.70
20041;DHT22;10181;48.072;9.884;2023-08-24T15:16:25;32.80;81.80
20041;DHT22;10181;48.072;9.884;2023-08-24T15:18:51;32.70;83.10
20041;DHT22;10181;48.072;9.884;2023-08-24T15:21:16;32.60;82.70
20041;DHT22;10181;48.072;9.884;2023-08-24T15:23:42;32.50;83.50
20041;DHT22;10181;48.072;9.884;2023-08-24T15:26:08;32.60;84.90
20041;DHT22;10181;48.072;9.884;2023-08-24T15:29:07;32.60;84.80
20041;DHT22;10181;48.072;9.884;2023-08-24T15:31:23;32.70;85.00
20041;DHT22;10181;48.072;9.884;2023-08-24T15:33:49;32.80;85.30
20041;DHT22;10181;48.072;9.884;2023-08-24T15:36:15;32.80;84.50
20041;DHT22;10181;48.072;9.884;2023-08-24T15:38:40;32.80;83.20